sensor_id;sensor_type;location;lat;lon;timestamp;temperature;humidity
15609;DHT22;64278;45.642;13.756;2023-05-29T00:02:12;24.80;57.50
15609;DHT22;64278;45.642;13.756;2023-05-29T00:04:37;24.90;57.50
15609;DHT22;64278;45.642;13.756;2023-05-29T00:07:04;24.90;57.50
15609;DHT22;64278;45.642;13.756;2023-05-29T00:09:30;24.80;57.40
15609;DHT22;64278;45.642;13.756;2023-05-29T00:11:56;24.90;57.50
15609;DHT22;64278;45.642;13.756;2023-05-29T00:14:22;24.80;57.40
15609;DHT22;64278;45.642;13.756;2023-05-29T00:16:50;24.90;57.40
15609;DHT22;64278;45.642;13.756;2023-05-29T00:19:16;24.90;57.40
15609;DHT22;64278;45.642;13.756;2023-05-29T00:21:42;24.80;57.40
15609;DHT22;64278;45.642;13.756;2023-05-29T00:24:08;24.80;57.40
15609;DHT22;64278;45.642;13.756;2023-05-29T00:26:34;24.80;57.40
15609;DHT22;64278;45.642;13.756;2023-05-29T00:29:00;24.80;57.40
15609;DHT22;64278;45.642;13.756;2023-05-29T00:31:26;24.90;57.50
15609;DHT22;64278;45.642;13.756;2023-05-29T00:33:51;24.80;57.50
15609;DHT22;64278;45.642;13.756;2023-05-29T00:36:17;24.80;57.60
15609;DHT22;64278;45.642;13.756;2023-05-29T00:38:43;24.80;57.90
15609;DHT22;64278;45.642;13.756;2023-05-29T00:41:14;24.80;58.30
15609;DHT22;64278;45.642;13.756;2023-05-29T00:43:41;24.90;58.70
15609;DHT22;64278;45.642;13.756;2023-05-29T00:46:07;24.90;58.80
15609;DHT22;64278;45.642;13.756;2023-05-29T00:48:33;24.90;59.10
15609;DHT22;64278;45.642;13.756;2023-05-29T00:50:59;24.90;59.20
15609;DHT22;64278;45.642;13.756;2023-05-29T00:53:25;24.90;59.40
15609;DHT22;64278;45.642;13.756;2023-05-29T00:55:52;24.90;59.50
15609;DHT22;64278;45.642;13.756;2023-05-29T00:58:18;24.90;59.50
15609;DHT22;64278;45.642;13.756;2023-05-29T01:00:44;24.90;59.50
15609;DHT22;64278;45.642;13.756;2023-05-29T01:03:12;24.80;59.40
15609;DHT22;64278;45.642;13.756;2023-05-29T01:05:42;24.90;59.40
15609;DHT22;64278;45.642;13.756;2023-05-29T01:08:08;24.80;59.40
15609;DHT22;64278;45.642;13.756;2023-05-29T01:10:34;24.90;59.40
15609;DHT22;64278;45.642;13.756;2023-05-29T01:15:49;24.90;59.30
15609;DHT22;64278;45.642;13.756;2023-05-29T01:21:04;24.80;59.20
15609;DHT22;64278;45.642;13.756;2023-05-29T01:29:03;24.80;59.20
15609;DHT22;64278;45.642;13.756;2023-05-29T01:31:31;24.90;59.10
15609;DHT22;64278;45.642;13.756;2023-05-29T01:33:59;24.90;59.10
15609;DHT22;64278;45.642;13.756;2023-05-29T01:36:27;24.90;59.10
15609;DHT22;64278;45.642;13.756;2023-05-29T01:38:57;24.90;59.10
15609;DHT22;64278;45.642;13.756;2023-05-29T01:41:23;24.80;59.00
15609;DHT22;64278;45.642;13.756;2023-05-29T01:43:50;24.80;59.00
15609;DHT22;64278;45.642;13.756;2023-05-29T01:46:16;24.80;59.00
15609;DHT22;64278;45.642;13.756;2023-05-29T01:48:44;24.80;59.00
15609;DHT22;64278;45.642;13.756;2023-05-29T01:51:11;24.80;58.90
15609;DHT22;64278;45.642;13.756;2023-05-29T01:53:41;24.80;58.90
15609;DHT22;64278;45.642;13.756;2023-05-29T01:56:07;24.90;58.90
15609;DHT22;64278;45.642;13.756;2023-05-29T01:58:35;24.80;58.90
15609;DHT22;64278;45.642;13.756;2023-05-29T02:01:02;24.80;58.80
15609;DHT22;64278;45.642;13.756;2023-05-29T02:03:29;24.80;58.80
15609;DHT22;64278;45.642;13.756;2023-05-29T02:05:57;24.80;58.80
15609;DHT22;64278;45.642;13.756;2023-05-29T02:08:22;24.80;58.80
15609;DHT22;64278;45.642;13.756;2023-05-29T02:10:48;24.90;58.80
15609;DHT22;64278;45.642;13.756;2023-05-29T02:13:14;24.80;58.70
15609;DHT22;64278;45.642;13.756;2023-05-29T02:15:40;24.80;58.80
15609;DHT22;64278;45.642;13.756;2023-05-29T02:18:08;24.80;58.70
15609;DHT22;64278;45.642;13.756;2023-05-29T02:20:34;24.80;58.70
15609;DHT22;64278;45.642;13.756;2023-05-29T02:23:00;24.80;58.70
15609;DHT22;64278;45.642;13.756;2023-05-29T02:25:25;24.80;58.70
15609;DHT22;64278;45.642;13.756;2023-05-29T02:27:51;24.80;58.60
15609;DHT22;64278;45.642;13.756;2023-05-29T02:30:17;24.80;58.60
15609;DHT22;64278;45.642;13.756;2023-05-29T02:32:42;24.80;58.60
15609;DHT22;64278;45.642;13.756;2023-05-29T02:35:08;24.80;58.60
15609;DHT22;64278;45.642;13.756;2023-05-29T02:37:34;24.80;58.60
15609;DHT22;64278;45.642;13.756;2023-05-29T02:39:59;24.80;58.70
15609;DHT22;64278;45.642;13.756;2023-05-29T02:42:25;24.80;58.60
15609;DHT22;64278;45.642;13.756;2023-05-29T02:44:51;24.80;58.70
15609;DHT22;64278;45.642;13.756;2023-05-29T02:47:16;24.80;58.70
15609;DHT22;64278;45.642;13.756;2023-05-29T02:49:42;24.80;58.70
15609;DHT22;64278;45.642;13.756;2023-05-29T02:52:08;24.80;58.70
15609;DHT22;64278;45.642;13.756;2023-05-29T02:54:34;24.80;58.70
15609;DHT22;64278;45.642;13.756;2023-05-29T02:57:00;24.80;58.70
15609;DHT22;64278;45.642;13.756;2023-05-29T02:59:25;24.80;58.70
15609;DHT22;64278;45.642;13.756;2023-05-29T03:01:51;24.80;58.60
15609;DHT22;64278;45.642;13.756;2023-05-29T03:04:17;24.80;58.60
15609;DHT22;64278;45.642;13.756;2023-05-29T03:06:42;24.80;58.70
15609;DHT22;64278;45.642;13.756;2023-05-29T03:09:08;24.80;58.60
15609;DHT22;64278;45.642;13.756;2023-05-29T03:11:34;24.80;58.60
15609;DHT22;64278;45.642;13.756;2023-05-29T03:14:01;24.80;58.60
15609;DHT22;64278;45.642;13.756;2023-05-29T03:16:27;24.80;58.60
15609;DHT22;64278;45.642;13.756;2023-05-29T03:18:55;24.80;58.50
15609;DHT22;64278;45.642;13.756;2023-05-29T03:21:20;24.80;58.50
15609;DHT22;64278;45.642;13.756;2023-05-29T03:23:47;24.80;58.50
15609;DHT22;64278;45.642;13.756;2023-05-29T03:26:13;24.70;58.50
15609;DHT22;64278;45.642;13.756;2023-05-29T03:28:39;24.70;58.50
15609;DHT22;64278;45.642;13.756;2023-05-29T03:31:05;24.80;58.50
15609;DHT22;64278;45.642;13.756;2023-05-29T03:33:30;24.80;58.50
15609;DHT22;64278;45.642;13.756;2023-05-29T03:35:56;24.80;58.40
15609;DHT22;64278;45.642;13.756;2023-05-29T03:38:22;24.80;58.40
15609;DHT22;64278;45.642;13.756;2023-05-29T03:40:48;24.70;58.30
15609;DHT22;64278;45.642;13.756;2023-05-29T03:43:14;24.70;58.30
15609;DHT22;64278;45.642;13.756;2023-05-29T03:45:40;24.70;58.40
15609;DHT22;64278;45.642;13.756;2023-05-29T03:48:05;24.80;58.40
15609;DHT22;64278;45.642;13.756;2023-05-29T03:50:31;24.70;58.30
15609;DHT22;64278;45.642;13.756;2023-05-29T03:52:57;24.80;58.30
15609;DHT22;64278;45.642;13.756;2023-05-29T03:55:23;24.80;58.30
15609;DHT22;64278;45.642;13.756;2023-05-29T03:57:48;24.70;58.20
15609;DHT22;64278;45.642;13.756;2023-05-29T04:00:14;24.80;58.20
15609;DHT22;64278;45.642;13.756;2023-05-29T04:02:40;24.80;58.20
15609;DHT22;64278;45.642;13.756;2023-05-29T04:05:07;24.80;58.20
15609;DHT22;64278;45.642;13.756;2023-05-29T04:07:34;24.70;58.20
15609;DHT22;64278;45.642;13.756;2023-05-29T04:10:02;24.70;58.20
15609;DHT22;64278;45.642;13.756;2023-05-29T04:12:28;24.80;58.20
15609;DHT22;64278;45.642;13.756;2023-05-29T04:14:54;24.80;58.20
15609;DHT22;64278;45.642;13.756;2023-05-29T04:17:20;24.70;58.10
15609;DHT22;64278;45.642;13.756;2023-05-29T04:19:45;24.80;58.20
15609;DHT22;64278;45.642;13.756;2023-05-29T04:22:11;24.70;58.10
15609;DHT22;64278;45.642;13.756;2023-05-29T04:24:37;24.80;58.20
15609;DHT22;64278;45.642;13.756;2023-05-29T04:27:02;24.70;58.20
15609;DHT22;64278;45.642;13.756;2023-05-29T04:29:31;24.80;58.20
15609;DHT22;64278;45.642;13.756;2023-05-29T04:31:59;24.70;58.20
15609;DHT22;64278;45.642;13.756;2023-05-29T04:34:29;24.70;58.20
15609;DHT22;64278;45.642;13.756;2023-05-29T04:36:56;24.80;58.20
15609;DHT22;64278;45.642;13.756;2023-05-29T04:39:23;24.80;58.20
15609;DHT22;64278;45.642;13.756;2023-05-29T04:41:50;24.70;58.20
15609;DHT22;64278;45.642;13.756;2023-05-29T04:44:19;24.80;58.20
15609;DHT22;64278;45.642;13.756;2023-05-29T04:46:45;24.80;58.20
15609;DHT22;64278;45.642;13.756;2023-05-29T04:49:11;24.80;58.20
15609;DHT22;64278;45.642;13.756;2023-05-29T04:51:38;24.70;58.50
15609;DHT22;64278;45.642;13.756;2023-05-29T04:54:10;24.80;58.20
15609;DHT22;64278;45.642;13.756;2023-05-29T04:56:35;24.80;58.20
15609;DHT22;64278;45.642;13.756;2023-05-29T04:59:02;24.80;58.20
15609;DHT22;64278;45.642;13.756;2023-05-29T05:01:27;24.80;58.20
15609;DHT22;64278;45.642;13.756;2023-05-29T05:03:54;24.70;58.20
15609;DHT22;64278;45.642;13.756;2023-05-29T05:06:22;24.70;58.20
15609;DHT22;64278;45.642;13.756;2023-05-29T05:08:53;24.70;58.20
15609;DHT22;64278;45.642;13.756;2023-05-29T05:11:19;24.80;58.20
15609;DHT22;64278;45.642;13.756;2023-05-29T05:13:45;24.70;58.20
15609;DHT22;64278;45.642;13.756;2023-05-29T05:16:11;24.80;58.20
15609;DHT22;64278;45.642;13.756;2023-05-29T05:18:37;24.80;58.20
15609;DHT22;64278;45.642;13.756;2023-05-29T05:21:03;24.70;58.10
15609;DHT22;64278;45.642;13.756;2023-05-29T05:23:29;24.70;58.10
15609;DHT22;64278;45.642;13.756;2023-05-29T05:25:55;24.80;58.20
15609;DHT22;64278;45.642;13.756;2023-05-29T05:28:21;24.80;58.20
15609;DHT22;64278;45.642;13.756;2023-05-29T05:30:47;24.70;58.10
15609;DHT22;64278;45.642;13.756;2023-05-29T05:33:12;24.80;58.20
15609;DHT22;64278;45.642;13.756;2023-05-29T05:35:38;24.80;58.20
15609;DHT22;64278;45.642;13.756;2023-05-29T05:38:04;24.70;58.10
15609;DHT22;64278;45.642;13.756;2023-05-29T05:40:30;24.80;58.20
15609;DHT22;64278;45.642;13.756;2023-05-29T05:42:55;24.80;58.20
15609;DHT22;64278;45.642;13.756;2023-05-29T05:45:21;24.70;58.40
15609;DHT22;64278;45.642;13.756;2023-05-29T05:47:47;24.70;58.60
15609;DHT22;64278;45.642;13.756;2023-05-29T05:50:13;24.70;58.20
15609;DHT22;64278;45.642;13.756;2023-05-29T05:52:38;24.70;57.20
15609;DHT22;64278;45.642;13.756;2023-05-29T05:55:05;24.70;56.30
15609;DHT22;64278;45.642;13.756;2023-05-29T05:57:31;24.60;55.80
15609;DHT22;64278;45.642;13.756;2023-05-29T06:00:02;24.60;56.10
15609;DHT22;64278;45.642;13.756;2023-05-29T06:02:31;24.60;56.40
15609;DHT22;64278;45.642;13.756;2023-05-29T06:04:57;24.60;56.50
15609;DHT22;64278;45.642;13.756;2023-05-29T06:07:22;24.60;55.70
15609;DHT22;64278;45.642;13.756;2023-05-29T06:09:48;24.50;55.10
15609;DHT22;64278;45.642;13.756;2023-05-29T06:12:14;24.50;55.40
15609;DHT22;64278;45.642;13.756;2023-05-29T06:14:41;24.50;55.70
15609;DHT22;64278;45.642;13.756;2023-05-29T06:17:07;24.50;55.10
15609;DHT22;64278;45.642;13.756;2023-05-29T06:19:33;24.50;56.10
15609;DHT22;64278;45.642;13.756;2023-05-29T06:21:58;24.60;56.80
15609;DHT22;64278;45.642;13.756;2023-05-29T06:24:24;24.60;57.40
15609;DHT22;64278;45.642;13.756;2023-05-29T06:26:49;24.60;59.20
15609;DHT22;64278;45.642;13.756;2023-05-29T06:29:15;24.60;58.00
15609;DHT22;64278;45.642;13.756;2023-05-29T06:31:41;24.70;59.20
15609;DHT22;64278;45.642;13.756;2023-05-29T06:34:07;24.70;60.30
15609;DHT22;64278;45.642;13.756;2023-05-29T06:36:32;24.70;58.90
15609;DHT22;64278;45.642;13.756;2023-05-29T06:38:58;24.70;59.70
15609;DHT22;64278;45.642;13.756;2023-05-29T06:41:24;24.70;60.50
15609;DHT22;64278;45.642;13.756;2023-05-29T06:43:50;24.70;60.50
15609;DHT22;64278;45.642;13.756;2023-05-29T06:46:17;24.70;60.30
15609;DHT22;64278;45.642;13.756;2023-05-29T06:48:42;24.80;60.70
15609;DHT22;64278;45.642;13.756;2023-05-29T06:51:09;24.80;60.20
15609;DHT22;64278;45.642;13.756;2023-05-29T06:53:40;24.80;60.30
15609;DHT22;64278;45.642;13.756;2023-05-29T06:56:06;24.80;59.50
15609;DHT22;64278;45.642;13.756;2023-05-29T06:58:32;24.80;58.10
15609;DHT22;64278;45.642;13.756;2023-05-29T07:00:58;24.80;59.00
15609;DHT22;64278;45.642;13.756;2023-05-29T07:03:27;24.90;57.60
15609;DHT22;64278;45.642;13.756;2023-05-29T07:05:53;24.90;59.00
15609;DHT22;64278;45.642;13.756;2023-05-29T07:08:19;24.90;59.70
15609;DHT22;64278;45.642;13.756;2023-05-29T07:10:45;24.90;58.90
15609;DHT22;64278;45.642;13.756;2023-05-29T07:13:15;24.90;57.50
15609;DHT22;64278;45.642;13.756;2023-05-29T07:15:42;24.90;57.20
15609;DHT22;64278;45.642;13.756;2023-05-29T07:18:07;24.80;57.10
15609;DHT22;64278;45.642;13.756;2023-05-29T07:20:33;24.90;57.90
15609;DHT22;64278;45.642;13.756;2023-05-29T07:22:59;24.90;59.30
15609;DHT22;64278;45.642;13.756;2023-05-29T07:25:25;24.90;59.90
15609;DHT22;64278;45.642;13.756;2023-05-29T07:27:51;25.00;58.90
15609;DHT22;64278;45.642;13.756;2023-05-29T07:30:17;25.00;59.70
15609;DHT22;64278;45.642;13.756;2023-05-29T07:32:43;25.00;58.70
15609;DHT22;64278;45.642;13.756;2023-05-29T07:35:09;25.00;59.30
15609;DHT22;64278;45.642;13.756;2023-05-29T07:37:35;25.00;60.20
15609;DHT22;64278;45.642;13.756;2023-05-29T07:40:01;25.00;59.40
15609;DHT22;64278;45.642;13.756;2023-05-29T07:42:27;25.00;57.90
15609;DHT22;64278;45.642;13.756;2023-05-29T07:44:52;25.10;55.80
15609;DHT22;64278;45.642;13.756;2023-05-29T07:47:18;25.00;55.90
15609;DHT22;64278;45.642;13.756;2023-05-29T07:49:44;25.00;55.80
15609;DHT22;64278;45.642;13.756;2023-05-29T07:52:09;25.00;55.70
15609;DHT22;64278;45.642;13.756;2023-05-29T07:54:36;25.00;55.60
15609;DHT22;64278;45.642;13.756;2023-05-29T07:57:01;24.90;55.50
15609;DHT22;64278;45.642;13.756;2023-05-29T07:59:35;24.90;55.20
15609;DHT22;64278;45.642;13.756;2023-05-29T08:02:01;24.90;55.00
15609;DHT22;64278;45.642;13.756;2023-05-29T08:04:28;24.90;55.30
15609;DHT22;64278;45.642;13.756;2023-05-29T08:06:54;24.90;54.60
15609;DHT22;64278;45.642;13.756;2023-05-29T08:09:20;25.00;54.80
15609;DHT22;64278;45.642;13.756;2023-05-29T08:11:46;25.00;54.90
15609;DHT22;64278;45.642;13.756;2023-05-29T08:14:14;25.00;54.80
15609;DHT22;64278;45.642;13.756;2023-05-29T08:16:39;25.00;54.40
15609;DHT22;64278;45.642;13.756;2023-05-29T08:19:05;25.00;55.00
15609;DHT22;64278;45.642;13.756;2023-05-29T08:21:31;25.00;54.60
15609;DHT22;64278;45.642;13.756;2023-05-29T08:23:58;25.00;54.70
15609;DHT22;64278;45.642;13.756;2023-05-29T08:26:24;25.00;54.70
15609;DHT22;64278;45.642;13.756;2023-05-29T08:28:50;25.00;54.50
15609;DHT22;64278;45.642;13.756;2023-05-29T08:31:15;25.00;54.60
15609;DHT22;64278;45.642;13.756;2023-05-29T08:33:41;25.00;54.50
15609;DHT22;64278;45.642;13.756;2023-05-29T08:36:07;25.00;54.10
15609;DHT22;64278;45.642;13.756;2023-05-29T08:38:34;25.00;54.00
15609;DHT22;64278;45.642;13.756;2023-05-29T08:41:00;25.10;53.90
15609;DHT22;64278;45.642;13.756;2023-05-29T08:43:30;25.00;53.50
15609;DHT22;64278;45.642;13.756;2023-05-29T08:46:00;25.10;53.50
15609;DHT22;64278;45.642;13.756;2023-05-29T08:48:27;25.10;53.50
15609;DHT22;64278;45.642;13.756;2023-05-29T08:50:55;25.10;53.60
15609;DHT22;64278;45.642;13.756;2023-05-29T08:53:21;25.00;53.50
15609;DHT22;64278;45.642;13.756;2023-05-29T08:55:48;25.00;53.50
15609;DHT22;64278;45.642;13.756;2023-05-29T08:58:17;25.00;53.30
15609;DHT22;64278;45.642;13.756;2023-05-29T09:00:46;25.00;53.20
15609;DHT22;64278;45.642;13.756;2023-05-29T09:03:11;25.00;53.30
15609;DHT22;64278;45.642;13.756;2023-05-29T09:05:39;25.00;52.90
15609;DHT22;64278;45.642;13.756;2023-05-29T09:08:06;25.00;51.90
15609;DHT22;64278;45.642;13.756;2023-05-29T09:10:33;25.00;51.60
15609;DHT22;64278;45.642;13.756;2023-05-29T09:12:59;25.00;50.30
15609;DHT22;64278;45.642;13.756;2023-05-29T09:15:24;25.00;50.00
15609;DHT22;64278;45.642;13.756;2023-05-29T09:20:18;25.00;50.30
15609;DHT22;64278;45.642;13.756;2023-05-29T09:22:54;25.00;50.60
15609;DHT22;64278;45.642;13.756;2023-05-29T09:25:22;25.00;50.60
15609;DHT22;64278;45.642;13.756;2023-05-29T09:30:43;25.00;50.60
15609;DHT22;64278;45.642;13.756;2023-05-29T09:33:10;25.00;50.70
15609;DHT22;64278;45.642;13.756;2023-05-29T09:38:16;25.00;50.60
15609;DHT22;64278;45.642;13.756;2023-05-29T09:40:43;25.10;49.50
15609;DHT22;64278;45.642;13.756;2023-05-29T09:43:18;25.10;49.60
15609;DHT22;64278;45.642;13.756;2023-05-29T09:45:46;25.00;48.70
15609;DHT22;64278;45.642;13.756;2023-05-29T09:48:22;25.10;48.40
15609;DHT22;64278;45.642;13.756;2023-05-29T09:50:48;25.00;47.80
15609;DHT22;64278;45.642;13.756;2023-05-29T09:53:18;25.00;48.40
15609;DHT22;64278;45.642;13.756;2023-05-29T09:55:48;25.00;49.20
15609;DHT22;64278;45.642;13.756;2023-05-29T09:58:23;25.00;48.70
15609;DHT22;64278;45.642;13.756;2023-05-29T10:00:50;25.00;48.20
15609;DHT22;64278;45.642;13.756;2023-05-29T10:03:17;25.00;47.50
15609;DHT22;64278;45.642;13.756;2023-05-29T10:05:47;25.00;46.80
15609;DHT22;64278;45.642;13.756;2023-05-29T10:08:15;25.00;46.40
15609;DHT22;64278;45.642;13.756;2023-05-29T10:10:59;25.10;45.80
15609;DHT22;64278;45.642;13.756;2023-05-29T10:13:28;25.10;45.80
15609;DHT22;64278;45.642;13.756;2023-05-29T10:15:58;25.10;45.80
15609;DHT22;64278;45.642;13.756;2023-05-29T10:18:27;25.10;45.80
15609;DHT22;64278;45.642;13.756;2023-05-29T10:20:57;25.10;45.80
15609;DHT22;64278;45.642;13.756;2023-05-29T10:23:25;25.10;45.70
15609;DHT22;64278;45.642;13.756;2023-05-29T10:25:54;25.10;45.80
15609;DHT22;64278;45.642;13.756;2023-05-29T10:28:22;25.10;46.30
15609;DHT22;64278;45.642;13.756;2023-05-29T10:31:01;25.10;46.40
15609;DHT22;64278;45.642;13.756;2023-05-29T10:33:33;25.10;46.10
15609;DHT22;64278;45.642;13.756;2023-05-29T10:36:18;25.10;46.00
15609;DHT22;64278;45.642;13.756;2023-05-29T10:38:47;25.10;46.40
15609;DHT22;64278;45.642;13.756;2023-05-29T10:43:58;25.10;47.90
15609;DHT22;64278;45.642;13.756;2023-05-29T10:49:19;25.10;47.40
15609;DHT22;64278;45.642;13.756;2023-05-29T10:51:45;25.10;46.50
15609;DHT22;64278;45.642;13.756;2023-05-29T10:54:11;25.10;45.00
15609;DHT22;64278;45.642;13.756;2023-05-29T10:56:37;25.20;44.10
15609;DHT22;64278;45.642;13.756;2023-05-29T10:59:03;25.20;43.80
15609;DHT22;64278;45.642;13.756;2023-05-29T11:01:30;25.20;43.00
15609;DHT22;64278;45.642;13.756;2023-05-29T11:06:43;25.20;44.10
15609;DHT22;64278;45.642;13.756;2023-05-29T11:09:35;25.20;42.80
15609;DHT22;64278;45.642;13.756;2023-05-29T11:12:16;25.30;43.60
15609;DHT22;64278;45.642;13.756;2023-05-29T11:15:06;25.30;44.50
15609;DHT22;64278;45.642;13.756;2023-05-29T11:17:37;25.30;45.40
15609;DHT22;64278;45.642;13.756;2023-05-29T11:23:02;25.30;46.50
15609;DHT22;64278;45.642;13.756;2023-05-29T11:25:28;25.30;46.70
15609;DHT22;64278;45.642;13.756;2023-05-29T11:27:54;25.20;46.60
15609;DHT22;64278;45.642;13.756;2023-05-29T11:30:21;25.30;46.50
15609;DHT22;64278;45.642;13.756;2023-05-29T11:32:47;25.30;46.70
15609;DHT22;64278;45.642;13.756;2023-05-29T11:35:14;25.30;46.80
15609;DHT22;64278;45.642;13.756;2023-05-29T11:37:41;25.30;46.90
15609;DHT22;64278;45.642;13.756;2023-05-29T11:40:12;25.30;46.60
15609;DHT22;64278;45.642;13.756;2023-05-29T11:42:45;25.30;45.20
15609;DHT22;64278;45.642;13.756;2023-05-29T11:45:16;25.30;45.40
15609;DHT22;64278;45.642;13.756;2023-05-29T11:47:58;25.30;45.50
15609;DHT22;64278;45.642;13.756;2023-05-29T11:50:26;25.40;44.70
15609;DHT22;64278;45.642;13.756;2023-05-29T11:52:52;25.30;44.60
15609;DHT22;64278;45.642;13.756;2023-05-29T11:55:21;25.30;46.10
15609;DHT22;64278;45.642;13.756;2023-05-29T11:57:48;25.30;47.50
15609;DHT22;64278;45.642;13.756;2023-05-29T12:00:18;25.30;47.40
15609;DHT22;64278;45.642;13.756;2023-05-29T12:02:44;25.40;46.20
15609;DHT22;64278;45.642;13.756;2023-05-29T12:05:13;25.40;46.00
15609;DHT22;64278;45.642;13.756;2023-05-29T12:07:52;25.40;46.70
15609;DHT22;64278;45.642;13.756;2023-05-29T12:10:20;25.40;47.90
15609;DHT22;64278;45.642;13.756;2023-05-29T12:12:54;25.40;48.20
15609;DHT22;64278;45.642;13.756;2023-05-29T12:15:20;25.40;49.20
15609;DHT22;64278;45.642;13.756;2023-05-29T12:17:48;25.50;51.10
15609;DHT22;64278;45.642;13.756;2023-05-29T12:20:14;25.40;52.00
15609;DHT22;64278;45.642;13.756;2023-05-29T12:22:42;25.50;49.70
15609;DHT22;64278;45.642;13.756;2023-05-29T12:27:36;25.50;47.10
15609;DHT22;64278;45.642;13.756;2023-05-29T12:30:27;25.50;46.50
15609;DHT22;64278;45.642;13.756;2023-05-29T12:32:53;25.60;46.00
15609;DHT22;64278;45.642;13.756;2023-05-29T12:35:23;25.60;45.60
15609;DHT22;64278;45.642;13.756;2023-05-29T12:40:23;25.60;44.50
15609;DHT22;64278;45.642;13.756;2023-05-29T12:42:53;25.60;43.20
15609;DHT22;64278;45.642;13.756;2023-05-29T12:45:19;25.60;43.00
15609;DHT22;64278;45.642;13.756;2023-05-29T12:47:55;25.60;43.20
15609;DHT22;64278;45.642;13.756;2023-05-29T12:50:29;25.60;44.00
15609;DHT22;64278;45.642;13.756;2023-05-29T12:55:27;25.50;45.50
15609;DHT22;64278;45.642;13.756;2023-05-29T12:57:53;25.50;46.60
15609;DHT22;64278;45.642;13.756;2023-05-29T13:00:19;25.50;46.80
15609;DHT22;64278;45.642;13.756;2023-05-29T13:02:46;25.50;46.90
15609;DHT22;64278;45.642;13.756;2023-05-29T13:05:13;25.50;47.20
15609;DHT22;64278;45.642;13.756;2023-05-29T13:07:39;25.50;47.40
15609;DHT22;64278;45.642;13.756;2023-05-29T13:10:05;25.50;47.70
15609;DHT22;64278;45.642;13.756;2023-05-29T13:12:31;25.50;47.90
15609;DHT22;64278;45.642;13.756;2023-05-29T13:14:57;25.50;47.80
15609;DHT22;64278;45.642;13.756;2023-05-29T13:17:23;25.50;47.80
15609;DHT22;64278;45.642;13.756;2023-05-29T13:19:48;25.50;47.70
15609;DHT22;64278;45.642;13.756;2023-05-29T13:22:14;25.50;47.60
15609;DHT22;64278;45.642;13.756;2023-05-29T13:24:40;25.50;47.30
15609;DHT22;64278;45.642;13.756;2023-05-29T13:27:06;25.50;47.30
15609;DHT22;64278;45.642;13.756;2023-05-29T13:29:32;25.50;46.80
15609;DHT22;64278;45.642;13.756;2023-05-29T13:31:58;25.50;45.40
15609;DHT22;64278;45.642;13.756;2023-05-29T13:34:24;25.50;44.60
15609;DHT22;64278;45.642;13.756;2023-05-29T13:36:54;25.50;44.90
15609;DHT22;64278;45.642;13.756;2023-05-29T13:39:20;25.50;45.50
15609;DHT22;64278;45.642;13.756;2023-05-29T13:41:46;25.50;45.80
15609;DHT22;64278;45.642;13.756;2023-05-29T13:44:12;25.50;46.70
15609;DHT22;64278;45.642;13.756;2023-05-29T13:46:37;25.50;45.50
15609;DHT22;64278;45.642;13.756;2023-05-29T13:49:03;25.50;44.80
15609;DHT22;64278;45.642;13.756;2023-05-29T13:51:29;25.50;43.40
15609;DHT22;64278;45.642;13.756;2023-05-29T13:53:54;25.60;42.70
15609;DHT22;64278;45.642;13.756;2023-05-29T13:56:20;25.60;42.60
15609;DHT22;64278;45.642;13.756;2023-05-29T13:58:46;25.50;42.10
15609;DHT22;64278;45.642;13.756;2023-05-29T14:01:11;25.60;41.80
15609;DHT22;64278;45.642;13.756;2023-05-29T14:03:38;25.60;42.70
15609;DHT22;64278;45.642;13.756;2023-05-29T14:06:04;25.50;43.60
15609;DHT22;64278;45.642;13.756;2023-05-29T14:08:31;25.50;44.50
15609;DHT22;64278;45.642;13.756;2023-05-29T14:10:56;25.60;44.80
15609;DHT22;64278;45.642;13.756;2023-05-29T14:13:22;25.50;44.70
15609;DHT22;64278;45.642;13.756;2023-05-29T14:15:48;25.50;44.50
15609;DHT22;64278;45.642;13.756;2023-05-29T14:18:15;25.60;43.50
15609;DHT22;64278;45.642;13.756;2023-05-29T14:20:41;25.60;42.80
15609;DHT22;64278;45.642;13.756;2023-05-29T14:23:06;25.50;43.80
15609;DHT22;64278;45.642;13.756;2023-05-29T14:25:34;25.60;43.30
15609;DHT22;64278;45.642;13.756;2023-05-29T14:28:00;25.60;43.20
15609;DHT22;64278;45.642;13.756;2023-05-29T14:30:25;25.50;43.60
15609;DHT22;64278;45.642;13.756;2023-05-29T14:32:51;25.60;43.30
15609;DHT22;64278;45.642;13.756;2023-05-29T14:35:17;25.60;43.40
15609;DHT22;64278;45.642;13.756;2023-05-29T14:37:42;25.50;43.70
15609;DHT22;64278;45.642;13.756;2023-05-29T14:40:08;25.60;43.40
15609;DHT22;64278;45.642;13.756;2023-05-29T14:42:34;25.60;43.40
15609;DHT22;64278;45.642;13.756;2023-05-29T14:45:00;25.60;43.30
15609;DHT22;64278;45.642;13.756;2023-05-29T14:47:26;25.60;42.70
15609;DHT22;64278;45.642;13.756;2023-05-29T14:49:51;25.60;42.70
15609;DHT22;64278;45.642;13.756;2023-05-29T14:52:17;25.60;42.10
15609;DHT22;64278;45.642;13.756;2023-05-29T14:54:43;25.60;42.00
15609;DHT22;64278;45.642;13.756;2023-05-29T14:57:08;25.60;41.50
15609;DHT22;64278;45.642;13.756;2023-05-29T14:59:34;25.60;40.90
15609;DHT22;64278;45.642;13.756;2023-05-29T15:01:59;25.60;41.20
15609;DHT22;64278;45.642;13.756;2023-05-29T15:04:26;25.60;41.70
15609;DHT22;64278;45.642;13.756;2023-05-29T15:06:51;25.60;42.00
15609;DHT22;64278;45.642;13.756;2023-05-29T15:09:19;25.60;41.00
15609;DHT22;64278;45.642;13.756;2023-05-29T15:11:44;25.60;40.50
15609;DHT22;64278;45.642;13.756;2023-05-29T15:14:10;25.60;40.30
15609;DHT22;64278;45.642;13.756;2023-05-29T15:16:36;25.60;40.00
15609;DHT22;64278;45.642;13.756;2023-05-29T15:19:01;25.60;40.00
15609;DHT22;64278;45.642;13.756;2023-05-29T15:21:27;25.60;40.50
15609;DHT22;64278;45.642;13.756;2023-05-29T15:23:53;25.60;40.60
15609;DHT22;64278;45.642;13.756;2023-05-29T15:26:18;25.60;40.90
15609;DHT22;64278;45.642;13.756;2023-05-29T15:28:44;25.60;40.00
15609;DHT22;64278;45.642;13.756;2023-05-29T15:31:10;25.60;39.00
15609;DHT22;64278;45.642;13.756;2023-05-29T15:33:36;25.60;38.90
15609;DHT22;64278;45.642;13.756;2023-05-29T15:36:02;25.60;39.30
15609;DHT22;64278;45.642;13.756;2023-05-29T15:38:27;25.60;39.90
15609;DHT22;64278;45.642;13.756;2023-05-29T15:40:55;25.60;40.10
15609;DHT22;64278;45.642;13.756;2023-05-29T15:43:21;25.60;40.50
15609;DHT22;64278;45.642;13.756;2023-05-29T15:45:46;25.60;41.00
15609;DHT22;64278;45.642;13.756;2023-05-29T15:48:13;25.50;41.50
15609;DHT22;64278;45.642;13.756;2023-05-29T15:50:39;25.60;41.40
15609;DHT22;64278;45.642;13.756;2023-05-29T15:53:05;25.60;41.50